Chester, Iowa
Current Conditions -  °F | °C
As of 2:15 AM on Saturday 29 Nov 2014 (Local Time) from KFKA Reporting Station
Haze Haze  
Wind Chill: 16°   Ceiling: Unl
Heat Index: 25°   Visibility: 4mi
Dew Point: 24°   Wind: 8mph
Humidity: 95%   Direction: 140°SE
Pressure: 29.63"   Gusts: NA
Location:  43.49°N, 92.36°W
Report Text: KFKA 290815Z AUTO 14007KT 4SM BR CLR M04/M05 A2963 RMK AO2 T10401047
Loading
Personal Weather Stations






























Interactive Weather Map New forecast layout! Learn more

10-Day Weather Forecast

Advertisements
Track Severe Weather on mobile